sensor_id;sensor_type;location;lat;lon;timestamp;P1;durP1;ratioP1;P2;durP2;ratioP2
12970;SDS011;6550;48.650;8.774;2022-12-16T00:00:19;20.97;;;16.33;;
12970;SDS011;6550;48.650;8.774;2022-12-16T00:02:49;22.83;;;19.67;;
12970;SDS011;6550;48.650;8.774;2022-12-16T00:05:17;21.00;;;16.93;;
12970;SDS011;6550;48.650;8.774;2022-12-16T00:07:47;21.63;;;16.63;;
12970;SDS011;6550;48.650;8.774;2022-12-16T00:10:16;22.77;;;17.13;;
12970;SDS011;6550;48.650;8.774;2022-12-16T00:12:45;23.03;;;16.93;;
12970;SDS011;6550;48.650;8.774;2022-12-16T00:15:11;24.70;;;17.07;;
12970;SDS011;6550;48.650;8.774;2022-12-16T00:17:38;22.30;;;16.67;;
12970;SDS011;6550;48.650;8.774;2022-12-16T00:20:05;23.23;;;17.30;;
12970;SDS011;6550;48.650;8.774;2022-12-16T00:22:35;23.87;;;18.03;;
12970;SDS011;6550;48.650;8.774;2022-12-16T00:25:01;22.20;;;17.13;;
12970;SDS011;6550;48.650;8.774;2022-12-16T00:27:28;23.93;;;16.93;;
12970;SDS011;6550;48.650;8.774;2022-12-16T00:29:59;23.23;;;17.20;;
12970;SDS011;6550;48.650;8.774;2022-12-16T00:32:26;24.37;;;17.37;;
12970;SDS011;6550;48.650;8.774;2022-12-16T00:34:55;24.97;;;17.50;;
12970;SDS011;6550;48.650;8.774;2022-12-16T00:37:22;24.90;;;17.43;;
12970;SDS011;6550;48.650;8.774;2022-12-16T00:39:54;23.10;;;17.47;;
12970;SDS011;6550;48.650;8.774;2022-12-16T00:42:20;21.93;;;16.80;;
12970;SDS011;6550;48.650;8.774;2022-12-16T00:44:47;22.80;;;17.53;;
12970;SDS011;6550;48.650;8.774;2022-12-16T00:47:19;22.37;;;17.13;;
12970;SDS011;6550;48.650;8.774;2022-12-16T00:49:46;22.07;;;16.20;;
12970;SDS011;6550;48.650;8.774;2022-12-16T00:52:15;24.10;;;16.87;;
12970;SDS011;6550;48.650;8.774;2022-12-16T00:54:41;23.40;;;16.83;;
12970;SDS011;6550;48.650;8.774;2022-12-16T00:57:10;24.40;;;17.50;;
12970;SDS011;6550;48.650;8.774;2022-12-16T00:59:39;22.77;;;16.57;;
12970;SDS011;6550;48.650;8.774;2022-12-16T01:02:06;23.10;;;16.80;;
12970;SDS011;6550;48.650;8.774;2022-12-16T01:04:33;23.63;;;17.40;;
12970;SDS011;6550;48.650;8.774;2022-12-16T01:07:00;25.67;;;17.83;;
12970;SDS011;6550;48.650;8.774;2022-12-16T01:09:27;24.63;;;17.73;;
12970;SDS011;6550;48.650;8.774;2022-12-16T01:11:53;23.13;;;17.53;;
12970;SDS011;6550;48.650;8.774;2022-12-16T01:14:22;23.43;;;17.20;;
12970;SDS011;6550;48.650;8.774;2022-12-16T01:16:49;23.17;;;17.67;;
12970;SDS011;6550;48.650;8.774;2022-12-16T01:19:19;23.60;;;17.10;;
12970;SDS011;6550;48.650;8.774;2022-12-16T01:21:49;23.33;;;18.40;;
12970;SDS011;6550;48.650;8.774;2022-12-16T01:24:15;23.93;;;18.20;;
12970;SDS011;6550;48.650;8.774;2022-12-16T01:26:42;23.27;;;16.40;;
12970;SDS011;6550;48.650;8.774;2022-12-16T01:29:11;25.53;;;17.47;;
12970;SDS011;6550;48.650;8.774;2022-12-16T01:31:40;23.83;;;18.10;;
12970;SDS011;6550;48.650;8.774;2022-12-16T01:34:07;23.00;;;16.33;;
12970;SDS011;6550;48.650;8.774;2022-12-16T01:36:34;21.97;;;16.20;;
12970;SDS011;6550;48.650;8.774;2022-12-16T01:39:01;24.03;;;17.37;;
12970;SDS011;6550;48.650;8.774;2022-12-16T01:41:31;23.43;;;17.30;;
12970;SDS011;6550;48.650;8.774;2022-12-16T01:44:13;24.33;;;17.33;;
12970;SDS011;6550;48.650;8.774;2022-12-16T01:46:54;23.83;;;17.70;;
12970;SDS011;6550;48.650;8.774;2022-12-16T01:52:13;24.20;;;17.67;;
12970;SDS011;6550;48.650;8.774;2022-12-16T01:54:46;22.40;;;17.20;;
12970;SDS011;6550;48.650;8.774;2022-12-16T01:57:21;23.57;;;16.30;;
12970;SDS011;6550;48.650;8.774;2022-12-16T01:59:52;23.50;;;16.67;;
12970;SDS011;6550;48.650;8.774;2022-12-16T02:02:23;20.70;;;16.33;;
12970;SDS011;6550;48.650;8.774;2022-12-16T02:04:53;23.83;;;17.53;;
12970;SDS011;6550;48.650;8.774;2022-12-16T02:07:39;20.53;;;15.90;;
12970;SDS011;6550;48.650;8.774;2022-12-16T02:10:08;20.53;;;15.83;;
12970;SDS011;6550;48.650;8.774;2022-12-16T02:12:40;21.53;;;16.87;;
12970;SDS011;6550;48.650;8.774;2022-12-16T02:40:00;22.50;;;16.00;;
12970;SDS011;6550;48.650;8.774;2022-12-16T02:42:35;21.40;;;15.87;;
12970;SDS011;6550;48.650;8.774;2022-12-16T02:47:45;21.07;;;16.43;;
12970;SDS011;6550;48.650;8.774;2022-12-16T02:53:14;20.90;;;16.00;;
12970;SDS011;6550;48.650;8.774;2022-12-16T02:55:49;20.70;;;14.87;;
12970;SDS011;6550;48.650;8.774;2022-12-16T02:58:34;19.73;;;15.07;;
12970;SDS011;6550;48.650;8.774;2022-12-16T03:04:11;19.70;;;14.87;;
12970;SDS011;6550;48.650;8.774;2022-12-16T03:06:46;21.93;;;15.13;;
12970;SDS011;6550;48.650;8.774;2022-12-16T03:09:18;19.50;;;14.60;;
12970;SDS011;6550;48.650;8.774;2022-12-16T03:11:49;21.07;;;17.43;;
12970;SDS011;6550;48.650;8.774;2022-12-16T03:14:17;21.17;;;16.17;;
12970;SDS011;6550;48.650;8.774;2022-12-16T03:16:45;20.50;;;14.77;;
12970;SDS011;6550;48.650;8.774;2022-12-16T03:19:16;21.43;;;15.43;;
12970;SDS011;6550;48.650;8.774;2022-12-16T03:21:49;19.00;;;14.20;;
12970;SDS011;6550;48.650;8.774;2022-12-16T03:24:24;19.00;;;13.90;;
12970;SDS011;6550;48.650;8.774;2022-12-16T03:30:13;19.60;;;14.10;;
12970;SDS011;6550;48.650;8.774;2022-12-16T03:32:39;18.47;;;13.47;;
12970;SDS011;6550;48.650;8.774;2022-12-16T03:35:13;18.73;;;13.43;;
12970;SDS011;6550;48.650;8.774;2022-12-16T03:37:45;19.43;;;14.17;;
12970;SDS011;6550;48.650;8.774;2022-12-16T03:40:16;19.77;;;14.43;;
12970;SDS011;6550;48.650;8.774;2022-12-16T03:42:48;18.50;;;13.87;;
12970;SDS011;6550;48.650;8.774;2022-12-16T03:45:24;18.33;;;13.67;;
12970;SDS011;6550;48.650;8.774;2022-12-16T03:47:58;18.97;;;13.50;;
12970;SDS011;6550;48.650;8.774;2022-12-16T03:50:28;18.83;;;13.67;;
12970;SDS011;6550;48.650;8.774;2022-12-16T03:52:58;19.00;;;16.38;;
12970;SDS011;6550;48.650;8.774;2022-12-16T03:55:25;19.00;;;15.00;;
12970;SDS011;6550;48.650;8.774;2022-12-16T03:57:52;20.97;;;14.87;;
12970;SDS011;6550;48.650;8.774;2022-12-16T04:00:19;20.07;;;13.97;;
12970;SDS011;6550;48.650;8.774;2022-12-16T04:02:48;20.70;;;13.77;;
12970;SDS011;6550;48.650;8.774;2022-12-16T04:05:18;18.67;;;13.63;;
12970;SDS011;6550;48.650;8.774;2022-12-16T04:07:48;17.70;;;13.27;;
12970;SDS011;6550;48.650;8.774;2022-12-16T04:10:20;17.70;;;12.57;;
12970;SDS011;6550;48.650;8.774;2022-12-16T04:13:08;19.60;;;13.53;;
12970;SDS011;6550;48.650;8.774;2022-12-16T04:15:56;18.67;;;13.97;;
12970;SDS011;6550;48.650;8.774;2022-12-16T04:18:44;18.53;;;13.90;;
12970;SDS011;6550;48.650;8.774;2022-12-16T04:21:30;16.53;;;12.73;;
12970;SDS011;6550;48.650;8.774;2022-12-16T04:24:16;19.40;;;13.93;;
12970;SDS011;6550;48.650;8.774;2022-12-16T04:26:49;18.40;;;13.37;;
12970;SDS011;6550;48.650;8.774;2022-12-16T04:29:40;17.57;;;13.10;;
12970;SDS011;6550;48.650;8.774;2022-12-16T04:32:26;19.13;;;15.40;;
12970;SDS011;6550;48.650;8.774;2022-12-16T04:35:13;18.63;;;13.67;;
12970;SDS011;6550;48.650;8.774;2022-12-16T04:38:03;17.07;;;13.40;;
12970;SDS011;6550;48.650;8.774;2022-12-16T04:40:48;17.53;;;12.90;;
12970;SDS011;6550;48.650;8.774;2022-12-16T04:43:36;18.07;;;13.70;;
12970;SDS011;6550;48.650;8.774;2022-12-16T04:46:24;16.27;;;12.47;;
12970;SDS011;6550;48.650;8.774;2022-12-16T04:49:12;17.33;;;12.83;;
12970;SDS011;6550;48.650;8.774;2022-12-16T04:51:57;18.87;;;12.57;;
12970;SDS011;6550;48.650;8.774;2022-12-16T04:54:43;15.77;;;12.37;;
12970;SDS011;6550;48.650;8.774;2022-12-16T04:57:33;17.27;;;12.63;;
12970;SDS011;6550;48.650;8.774;2022-12-16T05:00:19;17.27;;;12.80;;
12970;SDS011;6550;48.650;8.774;2022-12-16T05:03:05;15.80;;;12.70;;
12970;SDS011;6550;48.650;8.774;2022-12-16T05:05:50;15.50;;;12.80;;
12970;SDS011;6550;48.650;8.774;2022-12-16T05:08:35;18.20;;;12.20;;
12970;SDS011;6550;48.650;8.774;2022-12-16T05:11:21;16.57;;;12.60;;
12970;SDS011;6550;48.650;8.774;2022-12-16T05:14:07;17.10;;;14.90;;
12970;SDS011;6550;48.650;8.774;2022-12-16T05:16:55;16.53;;;12.60;;
12970;SDS011;6550;48.650;8.774;2022-12-16T05:19:40;16.90;;;12.20;;
12970;SDS011;6550;48.650;8.774;2022-12-16T05:22:26;17.03;;;12.20;;
12970;SDS011;6550;48.650;8.774;2022-12-16T05:25:11;15.90;;;11.47;;
12970;SDS011;6550;48.650;8.774;2022-12-16T05:27:56;17.75;;;14.65;;
12970;SDS011;6550;48.650;8.774;2022-12-16T05:30:42;16.80;;;12.70;;
12970;SDS011;6550;48.650;8.774;2022-12-16T05:33:27;17.80;;;13.63;;
12970;SDS011;6550;48.650;8.774;2022-12-16T05:36:13;16.57;;;12.13;;
12970;SDS011;6550;48.650;8.774;2022-12-16T05:38:58;18.27;;;12.87;;
12970;SDS011;6550;48.650;8.774;2022-12-16T05:41:43;16.57;;;12.43;;
12970;SDS011;6550;48.650;8.774;2022-12-16T05:44:31;16.67;;;12.10;;
12970;SDS011;6550;48.650;8.774;2022-12-16T05:47:19;17.03;;;12.70;;
12970;SDS011;6550;48.650;8.774;2022-12-16T05:50:04;15.43;;;11.47;;
12970;SDS011;6550;48.650;8.774;2022-12-16T05:52:53;16.83;;;11.40;;
12970;SDS011;6550;48.650;8.774;2022-12-16T05:55:40;16.48;;;13.45;;
12970;SDS011;6550;48.650;8.774;2022-12-16T05:58:26;15.20;;;10.67;;
12970;SDS011;6550;48.650;8.774;2022-12-16T06:01:13;15.47;;;11.03;;
12970;SDS011;6550;48.650;8.774;2022-12-16T06:03:59;14.97;;;11.40;;
12970;SDS011;6550;48.650;8.774;2022-12-16T06:06:44;13.70;;;10.57;;
12970;SDS011;6550;48.650;8.774;2022-12-16T06:09:29;15.37;;;10.97;;
12970;SDS011;6550;48.650;8.774;2022-12-16T06:12:21;14.63;;;10.47;;
12970;SDS011;6550;48.650;8.774;2022-12-16T06:15:11;13.57;;;10.17;;
12970;SDS011;6550;48.650;8.774;2022-12-16T06:17:59;15.63;;;10.90;;
12970;SDS011;6550;48.650;8.774;2022-12-16T06:20:44;15.67;;;11.03;;
12970;SDS011;6550;48.650;8.774;2022-12-16T06:23:32;14.37;;;11.30;;
12970;SDS011;6550;48.650;8.774;2022-12-16T06:26:17;13.77;;;10.80;;
12970;SDS011;6550;48.650;8.774;2022-12-16T06:29:06;15.17;;;11.43;;
12970;SDS011;6550;48.650;8.774;2022-12-16T06:31:52;15.20;;;10.97;;
12970;SDS011;6550;48.650;8.774;2022-12-16T06:34:38;12.70;;;10.30;;
12970;SDS011;6550;48.650;8.774;2022-12-16T06:37:23;13.20;;;9.70;;
12970;SDS011;6550;48.650;8.774;2022-12-16T06:40:09;14.10;;;10.40;;
12970;SDS011;6550;48.650;8.774;2022-12-16T06:42:54;13.03;;;10.53;;
12970;SDS011;6550;48.650;8.774;2022-12-16T06:45:42;13.60;;;9.60;;
12970;SDS011;6550;48.650;8.774;2022-12-16T06:48:28;13.20;;;9.27;;
12970;SDS011;6550;48.650;8.774;2022-12-16T06:51:16;13.93;;;10.33;;
12970;SDS011;6550;48.650;8.774;2022-12-16T06:54:01;14.07;;;9.17;;
12970;SDS011;6550;48.650;8.774;2022-12-16T06:56:47;14.63;;;9.63;;
12970;SDS011;6550;48.650;8.774;2022-12-16T06:59:35;13.50;;;9.70;;
12970;SDS011;6550;48.650;8.774;2022-12-16T07:02:20;11.97;;;10.00;;
12970;SDS011;6550;48.650;8.774;2022-12-16T07:05:06;13.77;;;9.60;;
12970;SDS011;6550;48.650;8.774;2022-12-16T07:07:52;12.30;;;8.67;;
12970;SDS011;6550;48.650;8.774;2022-12-16T07:10:37;14.20;;;9.37;;
12970;SDS011;6550;48.650;8.774;2022-12-16T07:13:38;13.43;;;9.47;;
12970;SDS011;6550;48.650;8.774;2022-12-16T07:16:24;12.02;;;9.05;;
12970;SDS011;6550;48.650;8.774;2022-12-16T07:19:09;11.97;;;9.07;;
12970;SDS011;6550;48.650;8.774;2022-12-16T07:21:56;15.17;;;9.83;;
12970;SDS011;6550;48.650;8.774;2022-12-16T07:24:42;11.70;;;9.33;;
12970;SDS011;6550;48.650;8.774;2022-12-16T07:27:27;14.00;;;8.83;;
12970;SDS011;6550;48.650;8.774;2022-12-16T07:30:15;13.57;;;10.55;;
12970;SDS011;6550;48.650;8.774;2022-12-16T07:33:00;12.67;;;8.67;;
12970;SDS011;6550;48.650;8.774;2022-12-16T07:35:45;12.13;;;8.67;;
12970;SDS011;6550;48.650;8.774;2022-12-16T07:38:31;12.23;;;9.07;;
12970;SDS011;6550;48.650;8.774;2022-12-16T07:41:16;11.90;;;8.63;;
12970;SDS011;6550;48.650;8.774;2022-12-16T07:44:01;12.20;;;8.80;;
12970;SDS011;6550;48.650;8.774;2022-12-16T07:46:47;11.80;;;8.77;;
12970;SDS011;6550;48.650;8.774;2022-12-16T07:49:33;11.33;;;8.23;;
12970;SDS011;6550;48.650;8.774;2022-12-16T07:52:20;12.40;;;8.67;;
12970;SDS011;6550;48.650;8.774;2022-12-16T07:55:06;11.67;;;8.83;;
12970;SDS011;6550;48.650;8.774;2022-12-16T07:57:52;12.73;;;8.87;;
12970;SDS011;6550;48.650;8.774;2022-12-16T08:00:37;13.33;;;8.63;;
12970;SDS011;6550;48.650;8.774;2022-12-16T08:03:23;15.53;;;9.03;;
12970;SDS011;6550;48.650;8.774;2022-12-16T08:06:10;12.13;;;8.67;;
12970;SDS011;6550;48.650;8.774;2022-12-16T08:08:59;12.80;;;8.50;;
12970;SDS011;6550;48.650;8.774;2022-12-16T08:11:45;11.95;;;9.65;;
12970;SDS011;6550;48.650;8.774;2022-12-16T08:14:30;11.20;;;8.83;;
12970;SDS011;6550;48.650;8.774;2022-12-16T08:17:17;10.50;;;7.83;;
12970;SDS011;6550;48.650;8.774;2022-12-16T08:20:03;9.10;;;7.50;;
12970;SDS011;6550;48.650;8.774;2022-12-16T08:22:48;9.60;;;8.37;;
12970;SDS011;6550;48.650;8.774;2022-12-16T08:25:33;9.17;;;7.23;;
12970;SDS011;6550;48.650;8.774;2022-12-16T08:28:21;10.87;;;8.27;;
12970;SDS011;6550;48.650;8.774;2022-12-16T08:31:10;12.27;;;8.33;;
12970;SDS011;6550;48.650;8.774;2022-12-16T08:33:55;11.57;;;7.87;;
12970;SDS011;6550;48.650;8.774;2022-12-16T08:36:46;10.07;;;7.63;;
12970;SDS011;6550;48.650;8.774;2022-12-16T08:39:31;11.77;;;8.27;;
12970;SDS011;6550;48.650;8.774;2022-12-16T08:42:36;8.43;;;7.10;;
12970;SDS011;6550;48.650;8.774;2022-12-16T08:45:22;10.90;;;7.17;;
12970;SDS011;6550;48.650;8.774;2022-12-16T08:48:10;8.53;;;7.23;;
12970;SDS011;6550;48.650;8.774;2022-12-16T08:50:59;10.20;;;7.30;;
12970;SDS011;6550;48.650;8.774;2022-12-16T08:53:45;10.27;;;7.40;;
12970;SDS011;6550;48.650;8.774;2022-12-16T08:56:30;9.73;;;7.30;;
12970;SDS011;6550;48.650;8.774;2022-12-16T08:59:18;8.83;;;7.07;;
12970;SDS011;6550;48.650;8.774;2022-12-16T09:02:04;9.10;;;7.23;;
12970;SDS011;6550;48.650;8.774;2022-12-16T09:04:49;9.77;;;7.47;;
12970;SDS011;6550;48.650;8.774;2022-12-16T09:07:34;9.33;;;7.33;;
12970;SDS011;6550;48.650;8.774;2022-12-16T09:10:20;9.63;;;7.40;;
12970;SDS011;6550;48.650;8.774;2022-12-16T09:13:06;8.60;;;7.07;;
12970;SDS011;6550;48.650;8.774;2022-12-16T09:15:56;9.27;;;7.90;;
12970;SDS011;6550;48.650;8.774;2022-12-16T09:18:45;11.37;;;8.30;;
12970;SDS011;6550;48.650;8.774;2022-12-16T09:21:30;10.73;;;8.17;;
12970;SDS011;6550;48.650;8.774;2022-12-16T09:24:18;9.97;;;7.63;;
12970;SDS011;6550;48.650;8.774;2022-12-16T09:27:06;10.70;;;7.57;;
12970;SDS011;6550;48.650;8.774;2022-12-16T09:29:52;10.13;;;7.23;;
12970;SDS011;6550;48.650;8.774;2022-12-16T09:32:43;9.67;;;7.30;;
12970;SDS011;6550;48.650;8.774;2022-12-16T09:35:28;9.77;;;7.03;;
12970;SDS011;6550;48.650;8.774;2022-12-16T09:38:14;8.07;;;6.70;;
12970;SDS011;6550;48.650;8.774;2022-12-16T09:47:39;10.20;;;7.33;;
12970;SDS011;6550;48.650;8.774;2022-12-16T09:50:30;8.57;;;6.77;;
12970;SDS011;6550;48.650;8.774;2022-12-16T09:53:20;8.47;;;6.60;;
12970;SDS011;6550;48.650;8.774;2022-12-16T09:56:09;8.10;;;6.63;;
12970;SDS011;6550;48.650;8.774;2022-12-16T09:59:04;8.57;;;7.00;;
12970;SDS011;6550;48.650;8.774;2022-12-16T10:01:55;8.80;;;7.55;;
12970;SDS011;6550;48.650;8.774;2022-12-16T10:04:41;9.47;;;6.60;;
12970;SDS011;6550;48.650;8.774;2022-12-16T10:07:30;7.63;;;6.47;;
12970;SDS011;6550;48.650;8.774;2022-12-16T10:10:24;8.57;;;6.33;;
12970;SDS011;6550;48.650;8.774;2022-12-16T10:14:01;8.00;;;6.17;;
12970;SDS011;6550;48.650;8.774;2022-12-16T10:16:47;7.60;;;6.10;;
12970;SDS011;6550;48.650;8.774;2022-12-16T10:22:59;7.67;;;5.73;;
12970;SDS011;6550;48.650;8.774;2022-12-16T10:29:06;5.17;;;4.00;;
12970;SDS011;6550;48.650;8.774;2022-12-16T10:32:13;5.80;;;5.20;;
12970;SDS011;6550;48.650;8.774;2022-12-16T10:35:16;8.87;;;4.60;;
12970;SDS011;6550;48.650;8.774;2022-12-16T10:38:11;5.27;;;4.77;;
12970;SDS011;6550;48.650;8.774;2022-12-16T10:41:06;7.53;;;5.63;;
12970;SDS011;6550;48.650;8.774;2022-12-16T10:43:56;5.93;;;5.03;;
12970;SDS011;6550;48.650;8.774;2022-12-16T10:46:42;5.87;;;4.83;;
12970;SDS011;6550;48.650;8.774;2022-12-16T10:49:29;6.63;;;5.40;;
12970;SDS011;6550;48.650;8.774;2022-12-16T10:52:20;5.10;;;4.37;;
12970;SDS011;6550;48.650;8.774;2022-12-16T10:55:14;5.90;;;5.30;;
12970;SDS011;6550;48.650;8.774;2022-12-16T11:01:19;6.43;;;4.53;;
12970;SDS011;6550;48.650;8.774;2022-12-16T11:04:43;6.63;;;5.20;;
12970;SDS011;6550;48.650;8.774;2022-12-16T11:07:38;6.00;;;4.77;;
12970;SDS011;6550;48.650;8.774;2022-12-16T11:10:36;6.80;;;5.47;;
12970;SDS011;6550;48.650;8.774;2022-12-16T11:13:25;6.90;;;5.10;;
12970;SDS011;6550;48.650;8.774;2022-12-16T11:16:21;7.70;;;5.03;;
12970;SDS011;6550;48.650;8.774;2022-12-16T11:19:27;7.32;;;5.55;;
12970;SDS011;6550;48.650;8.774;2022-12-16T11:22:17;6.80;;;5.20;;
12970;SDS011;6550;48.650;8.774;2022-12-16T11:28:03;8.07;;;4.90;;
12970;SDS011;6550;48.650;8.774;2022-12-16T11:30:52;6.07;;;4.80;;
12970;SDS011;6550;48.650;8.774;2022-12-16T11:33:42;6.65;;;5.70;;
12970;SDS011;6550;48.650;8.774;2022-12-16T11:36:29;5.07;;;4.57;;
12970;SDS011;6550;48.650;8.774;2022-12-16T11:39:20;6.90;;;5.07;;
12970;SDS011;6550;48.650;8.774;2022-12-16T11:42:09;6.17;;;4.90;;
12970;SDS011;6550;48.650;8.774;2022-12-16T11:45:01;6.90;;;4.83;;
12970;SDS011;6550;48.650;8.774;2022-12-16T11:47:55;6.07;;;4.80;;
12970;SDS011;6550;48.650;8.774;2022-12-16T11:50:52;6.43;;;5.20;;
12970;SDS011;6550;48.650;8.774;2022-12-16T11:56:44;5.97;;;4.72;;
12970;SDS011;6550;48.650;8.774;2022-12-16T12:06:39;5.80;;;4.80;;
12970;SDS011;6550;48.650;8.774;2022-12-16T12:09:16;6.77;;;5.30;;
12970;SDS011;6550;48.650;8.774;2022-12-16T12:17:57;6.20;;;4.40;;
12970;SDS011;6550;48.650;8.774;2022-12-16T12:30:17;5.87;;;4.50;;
12970;SDS011;6550;48.650;8.774;2022-12-16T12:48:02;6.13;;;4.87;;
12970;SDS011;6550;48.650;8.774;2022-12-16T12:51:15;6.17;;;4.60;;
12970;SDS011;6550;48.650;8.774;2022-12-16T12:57:14;7.17;;;4.80;;
12970;SDS011;6550;48.650;8.774;2022-12-16T13:00:13;7.40;;;5.27;;
12970;SDS011;6550;48.650;8.774;2022-12-16T13:03:13;7.70;;;5.30;;
12970;SDS011;6550;48.650;8.774;2022-12-16T13:06:22;6.50;;;4.57;;
12970;SDS011;6550;48.650;8.774;2022-12-16T13:12:31;5.83;;;5.00;;
12970;SDS011;6550;48.650;8.774;2022-12-16T13:15:35;6.63;;;5.63;;
12970;SDS011;6550;48.650;8.774;2022-12-16T13:18:29;6.10;;;4.90;;
12970;SDS011;6550;48.650;8.774;2022-12-16T13:27:11;6.50;;;5.07;;
12970;SDS011;6550;48.650;8.774;2022-12-16T13:30:02;6.30;;;5.70;;
12970;SDS011;6550;48.650;8.774;2022-12-16T13:32:53;7.07;;;5.17;;
12970;SDS011;6550;48.650;8.774;2022-12-16T13:35:54;6.93;;;5.13;;
12970;SDS011;6550;48.650;8.774;2022-12-16T13:38:47;5.77;;;4.80;;
12970;SDS011;6550;48.650;8.774;2022-12-16T13:47:58;6.90;;;5.30;;
12970;SDS011;6550;48.650;8.774;2022-12-16T13:50:44;5.70;;;4.57;;
12970;SDS011;6550;48.650;8.774;2022-12-16T13:53:39;6.60;;;4.80;;
12970;SDS011;6550;48.650;8.774;2022-12-16T13:56:33;6.10;;;5.47;;
12970;SDS011;6550;48.650;8.774;2022-12-16T13:59:25;7.07;;;5.07;;
12970;SDS011;6550;48.650;8.774;2022-12-16T14:02:18;6.53;;;5.20;;
12970;SDS011;6550;48.650;8.774;2022-12-16T14:05:41;6.20;;;4.80;;
12970;SDS011;6550;48.650;8.774;2022-12-16T14:08:27;6.53;;;5.72;;
12970;SDS011;6550;48.650;8.774;2022-12-16T14:14:31;8.37;;;5.40;;
12970;SDS011;6550;48.650;8.774;2022-12-16T14:17:29;7.07;;;5.27;;
12970;SDS011;6550;48.650;8.774;2022-12-16T14:20:30;6.97;;;5.57;;
12970;SDS011;6550;48.650;8.774;2022-12-16T14:26:23;7.53;;;5.37;;
12970;SDS011;6550;48.650;8.774;2022-12-16T14:29:14;6.70;;;4.97;;
12970;SDS011;6550;48.650;8.774;2022-12-16T14:32:16;7.40;;;5.10;;
12970;SDS011;6550;48.650;8.774;2022-12-16T14:35:30;7.13;;;4.80;;
12970;SDS011;6550;48.650;8.774;2022-12-16T14:44:18;7.77;;;4.60;;
12970;SDS011;6550;48.650;8.774;2022-12-16T14:47:15;6.20;;;5.10;;
12970;SDS011;6550;48.650;8.774;2022-12-16T14:50:02;6.83;;;4.80;;
12970;SDS011;6550;48.650;8.774;2022-12-16T14:59:05;5.10;;;4.30;;
12970;SDS011;6550;48.650;8.774;2022-12-16T15:01:58;6.93;;;4.97;;
12970;SDS011;6550;48.650;8.774;2022-12-16T15:04:55;5.83;;;4.57;;
12970;SDS011;6550;48.650;8.774;2022-12-16T15:07:40;5.60;;;4.00;;
12970;SDS011;6550;48.650;8.774;2022-12-16T15:10:26;5.03;;;4.03;;
12970;SDS011;6550;48.650;8.774;2022-12-16T15:13:13;6.57;;;5.03;;
12970;SDS011;6550;48.650;8.774;2022-12-16T15:16:01;5.47;;;4.10;;
12970;SDS011;6550;48.650;8.774;2022-12-16T15:18:51;6.70;;;4.90;;
12970;SDS011;6550;48.650;8.774;2022-12-16T15:21:42;5.63;;;4.83;;
12970;SDS011;6550;48.650;8.774;2022-12-16T15:24:28;6.10;;;4.77;;
12970;SDS011;6550;48.650;8.774;2022-12-16T15:27:23;4.67;;;4.17;;
12970;SDS011;6550;48.650;8.774;2022-12-16T15:33:22;6.77;;;4.63;;
12970;SDS011;6550;48.650;8.774;2022-12-16T15:39:00;5.27;;;4.53;;
12970;SDS011;6550;48.650;8.774;2022-12-16T15:41:45;7.23;;;4.53;;
12970;SDS011;6550;48.650;8.774;2022-12-16T15:44:31;6.70;;;4.90;;
12970;SDS011;6550;48.650;8.774;2022-12-16T15:47:23;5.90;;;4.47;;
12970;SDS011;6550;48.650;8.774;2022-12-16T15:50:13;6.00;;;4.80;;
12970;SDS011;6550;48.650;8.774;2022-12-16T15:56:23;7.00;;;5.70;;
12970;SDS011;6550;48.650;8.774;2022-12-16T15:59:28;8.57;;;6.43;;
12970;SDS011;6550;48.650;8.774;2022-12-16T16:02:22;7.17;;;5.63;;
12970;SDS011;6550;48.650;8.774;2022-12-16T16:05:11;6.57;;;5.90;;
12970;SDS011;6550;48.650;8.774;2022-12-16T16:08:16;7.10;;;5.50;;
12970;SDS011;6550;48.650;8.774;2022-12-16T16:11:04;6.23;;;4.63;;
12970;SDS011;6550;48.650;8.774;2022-12-16T16:13:49;6.37;;;5.13;;
12970;SDS011;6550;48.650;8.774;2022-12-16T16:16:39;9.53;;;4.87;;
12970;SDS011;6550;48.650;8.774;2022-12-16T16:19:25;7.40;;;5.43;;
12970;SDS011;6550;48.650;8.774;2022-12-16T16:22:11;7.40;;;4.97;;
12970;SDS011;6550;48.650;8.774;2022-12-16T16:24:58;9.60;;;4.87;;
12970;SDS011;6550;48.650;8.774;2022-12-16T16:27:46;6.80;;;5.23;;
12970;SDS011;6550;48.650;8.774;2022-12-16T16:30:31;6.37;;;4.90;;
12970;SDS011;6550;48.650;8.774;2022-12-16T16:33:19;6.47;;;5.78;;
12970;SDS011;6550;48.650;8.774;2022-12-16T16:36:13;8.20;;;6.03;;
12970;SDS011;6550;48.650;8.774;2022-12-16T16:39:01;9.93;;;5.33;;
12970;SDS011;6550;48.650;8.774;2022-12-16T16:41:47;7.83;;;5.00;;
12970;SDS011;6550;48.650;8.774;2022-12-16T16:44:32;9.33;;;5.73;;
12970;SDS011;6550;48.650;8.774;2022-12-16T16:47:25;6.67;;;5.20;;
12970;SDS011;6550;48.650;8.774;2022-12-16T16:50:14;5.60;;;4.53;;
12970;SDS011;6550;48.650;8.774;2022-12-16T16:52:59;8.83;;;5.40;;
12970;SDS011;6550;48.650;8.774;2022-12-16T16:55:44;7.17;;;5.23;;
12970;SDS011;6550;48.650;8.774;2022-12-16T16:58:30;7.07;;;4.90;;
12970;SDS011;6550;48.650;8.774;2022-12-16T17:01:20;7.00;;;4.60;;
12970;SDS011;6550;48.650;8.774;2022-12-16T17:04:05;7.83;;;5.20;;
12970;SDS011;6550;48.650;8.774;2022-12-16T17:06:51;6.10;;;4.57;;
12970;SDS011;6550;48.650;8.774;2022-12-16T17:09:36;9.80;;;4.73;;
12970;SDS011;6550;48.650;8.774;2022-12-16T17:12:22;9.40;;;5.25;;
12970;SDS011;6550;48.650;8.774;2022-12-16T17:18:00;7.23;;;5.60;;
12970;SDS011;6550;48.650;8.774;2022-12-16T17:20:45;7.83;;;6.07;;
12970;SDS011;6550;48.650;8.774;2022-12-16T17:23:31;8.33;;;6.50;;
12970;SDS011;6550;48.650;8.774;2022-12-16T17:26:17;6.80;;;5.60;;
12970;SDS011;6550;48.650;8.774;2022-12-16T17:29:05;8.90;;;6.40;;
12970;SDS011;6550;48.650;8.774;2022-12-16T17:31:50;7.80;;;6.23;;
12970;SDS011;6550;48.650;8.774;2022-12-16T17:34:36;8.03;;;5.93;;
12970;SDS011;6550;48.650;8.774;2022-12-16T17:37:22;8.87;;;6.97;;
12970;SDS011;6550;48.650;8.774;2022-12-16T17:40:07;7.70;;;5.67;;
12970;SDS011;6550;48.650;8.774;2022-12-16T17:42:53;7.40;;;5.87;;
12970;SDS011;6550;48.650;8.774;2022-12-16T17:45:38;10.23;;;6.20;;
12970;SDS011;6550;48.650;8.774;2022-12-16T17:48:24;7.17;;;6.23;;
12970;SDS011;6550;48.650;8.774;2022-12-16T17:51:12;8.23;;;5.93;;
12970;SDS011;6550;48.650;8.774;2022-12-16T17:53:57;10.20;;;7.47;;
12970;SDS011;6550;48.650;8.774;2022-12-16T17:56:51;9.23;;;6.60;;
12970;SDS011;6550;48.650;8.774;2022-12-16T17:59:36;8.50;;;6.40;;
12970;SDS011;6550;48.650;8.774;2022-12-16T18:02:32;7.50;;;5.80;;
12970;SDS011;6550;48.650;8.774;2022-12-16T18:05:20;7.40;;;5.73;;
12970;SDS011;6550;48.650;8.774;2022-12-16T18:08:10;7.40;;;6.63;;
12970;SDS011;6550;48.650;8.774;2022-12-16T18:10:57;6.13;;;5.07;;
12970;SDS011;6550;48.650;8.774;2022-12-16T18:13:45;9.20;;;5.87;;
12970;SDS011;6550;48.650;8.774;2022-12-16T18:16:30;7.33;;;5.30;;
12970;SDS011;6550;48.650;8.774;2022-12-16T18:19:15;5.83;;;5.00;;
12970;SDS011;6550;48.650;8.774;2022-12-16T18:22:01;8.00;;;5.80;;
12970;SDS011;6550;48.650;8.774;2022-12-16T18:24:47;6.53;;;5.40;;
12970;SDS011;6550;48.650;8.774;2022-12-16T18:27:34;6.87;;;5.27;;
12970;SDS011;6550;48.650;8.774;2022-12-16T18:30:20;5.73;;;4.87;;
12970;SDS011;6550;48.650;8.774;2022-12-16T18:33:06;6.13;;;4.93;;
12970;SDS011;6550;48.650;8.774;2022-12-16T18:35:51;6.22;;;5.60;;
12970;SDS011;6550;48.650;8.774;2022-12-16T18:38:39;6.00;;;5.13;;
12970;SDS011;6550;48.650;8.774;2022-12-16T18:41:26;7.17;;;5.00;;
12970;SDS011;6550;48.650;8.774;2022-12-16T18:44:16;6.43;;;5.00;;
12970;SDS011;6550;48.650;8.774;2022-12-16T18:47:01;7.10;;;5.27;;
12970;SDS011;6550;48.650;8.774;2022-12-16T18:49:46;7.67;;;5.47;;
12970;SDS011;6550;48.650;8.774;2022-12-16T18:52:32;6.20;;;4.60;;
12970;SDS011;6550;48.650;8.774;2022-12-16T18:55:17;6.17;;;5.03;;
12970;SDS011;6550;48.650;8.774;2022-12-16T18:58:02;6.10;;;4.60;;
12970;SDS011;6550;48.650;8.774;2022-12-16T19:01:10;6.77;;;5.17;;